Time;durP1;ratioP1;P1;durP2;ratioP2;P2;SDS_P1;SDS_P2;PMS_P1;PMS_P2;Temp;Humidity;BMP_temperature;BMP_pressure;BME280_temperature;BME280_humidity;BME280_pressure;Samples;Min_cycle;Max_cycle;Signal;HPM_P1;HPM_P2
2022/07/25 00:02:20;;;;;;;;;;;20.70;99.90;;;;;;5099321;28;20462;-70
2022/07/25 00:04:46;;;;;;;;;;;20.60;99.90;;;;;;5095293;28;19960;-70
2022/07/25 00:07:11;;;;;;;;;;;20.60;99.90;;;;;;5093745;28;19916;-69
2022/07/25 00:09:37;;;;;;;;;;;20.50;99.90;;;;;;5074696;28;19912;-70
2022/07/25 00:12:02;;;;;;;;;;;20.60;99.90;;;;;;5098113;28;20290;-69
2022/07/25 00:14:28;;;;;;;;;;;20.70;99.90;;;;;;5091115;28;20006;-70
2022/07/25 00:16:54;;;;;;;;;;;20.70;99.90;;;;;;5095036;28;20410;-69
2022/07/25 00:19:19;;;;;;;;;;;20.50;99.90;;;;;;5095214;28;19981;-69
2022/07/25 00:21:46;;;;;;;;;;;20.50;99.90;;;;;;5096033;28;19920;-69
2022/07/25 00:24:12;;;;;;;;;;;20.60;99.90;;;;;;5079999;28;19920;-69
2022/07/25 00:26:37;;;;;;;;;;;20.50;99.90;;;;;;5094103;28;19973;-70
2022/07/25 00:29:03;;;;;;;;;;;20.40;99.90;;;;;;5090111;28;19916;-69
2022/07/25 00:31:28;;;;;;;;;;;20.30;99.90;;;;;;5096873;28;19987;-69
2022/07/25 00:33:54;;;;;;;;;;;20.40;99.90;;;;;;5093139;28;19916;-69
2022/07/25 00:36:19;;;;;;;;;;;20.50;99.90;;;;;;5094603;28;20388;-69
2022/07/25 00:38:45;;;;;;;;;;;20.70;99.90;;;;;;5093611;28;20392;-70
2022/07/25 00:41:10;;;;;;;;;;;20.70;99.90;;;;;;5077292;28;20348;-70
2022/07/25 00:43:36;;;;;;;;;;;20.50;99.90;;;;;;5093970;28;19911;-69
2022/07/25 00:46:02;;;;;;;;;;;20.60;99.90;;;;;;5073290;28;20654;-68
2022/07/25 00:48:27;;;;;;;;;;;20.60;99.90;;;;;;5093932;28;19922;-70
2022/07/25 00:50:53;;;;;;;;;;;20.60;99.90;;;;;;5096551;28;20007;-70
2022/07/25 00:53:19;;;;;;;;;;;20.70;99.90;;;;;;5095761;28;19947;-69
2022/07/25 00:55:45;;;;;;;;;;;20.60;99.90;;;;;;5092917;28;19967;-70
2022/07/25 00:58:11;;;;;;;;;;;20.40;99.90;;;;;;5091226;28;19916;-69
2022/07/25 01:00:37;;;;;;;;;;;20.20;99.90;;;;;;5094537;28;19926;-69
2022/07/25 01:03:02;;;;;;;;;;;20.20;99.90;;;;;;5095895;28;19923;-69
2022/07/25 01:05:28;;;;;;;;;;;20.20;99.90;;;;;;5093118;28;19967;-70
2022/07/25 01:07:54;;;;;;;;;;;20.20;99.90;;;;;;5094239;28;20731;-70
2022/07/25 01:10:19;;;;;;;;;;;20.40;99.90;;;;;;5093037;28;20755;-70
2022/07/25 01:12:48;;;;;;;;;;;20.40;99.90;;;;;;5095955;28;19916;-70
2022/07/25 01:15:14;;;;;;;;;;;20.40;99.90;;;;;;5091920;28;20359;-70
2022/07/25 01:17:40;;;;;;;;;;;20.30;99.90;;;;;;5094853;28;20418;-70
2022/07/25 01:20:12;;;;;;;;;;;20.30;99.90;;;;;;5095803;28;19958;-70
2022/07/25 01:22:37;;;;;;;;;;;20.30;99.90;;;;;;5097136;28;19919;-70
2022/07/25 01:25:03;;;;;;;;;;;20.30;99.90;;;;;;5092445;28;19996;-69
2022/07/25 01:27:30;;;;;;;;;;;20.30;99.90;;;;;;5093244;28;19929;-70
2022/07/25 01:29:55;;;;;;;;;;;20.10;99.90;;;;;;5092327;28;20435;-70
2022/07/25 01:32:21;;;;;;;;;;;20.00;99.90;;;;;;5099764;28;19912;-70
2022/07/25 01:34:46;;;;;;;;;;;20.00;99.90;;;;;;5075650;28;19919;-70
2022/07/25 01:37:12;;;;;;;;;;;19.90;99.90;;;;;;5092777;28;19912;-70
2022/07/25 01:39:37;;;;;;;;;;;19.90;99.90;;;;;;5074165;28;20205;-70
2022/07/25 01:42:03;;;;;;;;;;;19.80;99.90;;;;;;5097032;28;19920;-70
2022/07/25 01:44:29;;;;;;;;;;;19.80;99.90;;;;;;5095507;28;19924;-70
2022/07/25 01:46:54;;;;;;;;;;;20.00;99.90;;;;;;5090307;28;20328;-69
2022/07/25 01:49:20;;;;;;;;;;;20.00;99.90;;;;;;5099329;28;20239;-70
2022/07/25 01:51:45;;;;;;;;;;;20.10;99.90;;;;;;5094621;28;19912;-70
2022/07/25 01:54:11;;;;;;;;;;;20.10;99.90;;;;;;5099267;28;20357;-70
2022/07/25 01:56:41;;;;;;;;;;;20.10;99.90;;;;;;5097900;28;20015;-70
2022/07/25 01:59:07;;;;;;;;;;;20.20;99.90;;;;;;5080689;28;19912;-70
2022/07/25 02:01:32;;;;;;;;;;;20.20;99.90;;;;;;5080019;28;19922;-70
2022/07/25 02:03:58;;;;;;;;;;;20.10;99.90;;;;;;5094290;28;19920;-70
2022/07/25 02:06:23;;;;;;;;;;;20.20;99.90;;;;;;5097747;28;19919;-69
2022/07/25 02:08:49;;;;;;;;;;;20.10;99.90;;;;;;5097684;28;19912;-70
2022/07/25 02:11:14;;;;;;;;;;;20.00;99.90;;;;;;5095896;28;19937;-70
2022/07/25 02:13:40;;;;;;;;;;;20.00;99.90;;;;;;5102080;28;19912;-70
2022/07/25 02:16:06;;;;;;;;;;;19.80;99.90;;;;;;5094469;28;19981;-68
2022/07/25 02:18:31;;;;;;;;;;;19.80;99.90;;;;;;5080233;28;19912;-69
2022/07/25 02:20:57;;;;;;;;;;;19.60;99.90;;;;;;5099184;28;20501;-69
2022/07/25 02:23:22;;;;;;;;;;;19.70;99.90;;;;;;5093402;28;19926;-69
2022/07/25 02:25:48;;;;;;;;;;;19.80;99.90;;;;;;5099936;28;21506;-71
2022/07/25 02:28:13;;;;;;;;;;;19.90;99.90;;;;;;5106178;28;20012;-70
2022/07/25 02:30:39;;;;;;;;;;;19.90;99.90;;;;;;5100176;28;19998;-70
2022/07/25 02:33:05;;;;;;;;;;;20.10;99.90;;;;;;5080247;28;19911;-69
2022/07/25 02:35:30;;;;;;;;;;;20.10;99.90;;;;;;5078678;28;19918;-70
2022/07/25 02:37:56;;;;;;;;;;;20.00;99.90;;;;;;5096376;28;19993;-70
2022/07/25 02:40:22;;;;;;;;;;;19.90;99.90;;;;;;5092811;28;19924;-70
2022/07/25 02:42:47;;;;;;;;;;;20.00;99.90;;;;;;5094074;28;19927;-70
2022/07/25 02:45:13;;;;;;;;;;;20.00;99.90;;;;;;5087790;28;19920;-70
2022/07/25 02:47:38;;;;;;;;;;;20.00;99.90;;;;;;5096715;28;19946;-69
2022/07/25 02:50:04;;;;;;;;;;;20.00;99.90;;;;;;5096612;28;19919;-70
2022/07/25 02:52:30;;;;;;;;;;;19.90;99.90;;;;;;5098891;28;19920;-70
2022/07/25 02:54:55;;;;;;;;;;;19.80;99.90;;;;;;5099536;28;19911;-69
2022/07/25 02:57:21;;;;;;;;;;;19.60;99.90;;;;;;5092979;28;20951;-70
2022/07/25 02:59:46;;;;;;;;;;;19.70;99.90;;;;;;5093338;28;19916;-69
2022/07/25 03:02:12;;;;;;;;;;;19.90;99.90;;;;;;5092552;28;20334;-69
2022/07/25 03:04:37;;;;;;;;;;;19.90;99.90;;;;;;5097460;28;19920;-69
2022/07/25 03:07:03;;;;;;;;;;;19.80;99.90;;;;;;5079576;28;19911;-70
2022/07/25 03:09:28;;;;;;;;;;;19.60;99.90;;;;;;5096789;28;19916;-70
2022/07/25 03:11:54;;;;;;;;;;;19.60;99.90;;;;;;5094586;28;20036;-70
2022/07/25 03:14:20;;;;;;;;;;;19.60;99.90;;;;;;5092083;28;19951;-69
2022/07/25 03:16:45;;;;;;;;;;;19.60;99.90;;;;;;5095798;28;22571;-69
2022/07/25 03:19:12;;;;;;;;;;;19.60;99.90;;;;;;5096573;28;19915;-70
2022/07/25 03:21:37;;;;;;;;;;;19.80;99.90;;;;;;5097807;28;19912;-69
2022/07/25 03:24:03;;;;;;;;;;;19.90;99.90;;;;;;5098849;28;19924;-70
2022/07/25 03:26:28;;;;;;;;;;;19.70;99.90;;;;;;5096280;28;19923;-70
2022/07/25 03:28:54;;;;;;;;;;;19.90;99.90;;;;;;5095661;28;19938;-69
2022/07/25 03:31:19;;;;;;;;;;;20.00;99.90;;;;;;5095690;28;20007;-70
2022/07/25 03:33:45;;;;;;;;;;;19.90;99.90;;;;;;5076895;28;19920;-70
2022/07/25 03:36:11;;;;;;;;;;;19.90;99.90;;;;;;5097325;28;19964;-70
2022/07/25 03:38:36;;;;;;;;;;;20.00;99.90;;;;;;5090837;28;19938;-70
2022/07/25 03:41:02;;;;;;;;;;;19.80;99.90;;;;;;5094431;28;20197;-69
2022/07/25 03:43:29;;;;;;;;;;;19.90;99.90;;;;;;5095036;28;19916;-70
2022/07/25 03:45:54;;;;;;;;;;;19.90;99.90;;;;;;5093141;28;20293;-70
2022/07/25 03:48:20;;;;;;;;;;;19.80;99.90;;;;;;5094505;28;19935;-70
2022/07/25 03:50:46;;;;;;;;;;;19.60;99.90;;;;;;5097084;28;19912;-70
2022/07/25 03:53:11;;;;;;;;;;;19.60;99.90;;;;;;5095620;28;20093;-70
2022/07/25 03:55:38;;;;;;;;;;;19.50;99.90;;;;;;5093318;28;19916;-69
2022/07/25 03:58:04;;;;;;;;;;;19.60;99.90;;;;;;5096380;28;20001;-70
2022/07/25 04:00:30;;;;;;;;;;;19.40;99.90;;;;;;5090965;28;19953;-69
2022/07/25 04:02:55;;;;;;;;;;;19.40;99.90;;;;;;5102654;28;19998;-70
2022/07/25 04:05:21;;;;;;;;;;;19.20;99.90;;;;;;5074093;28;19920;-70
2022/07/25 04:07:46;;;;;;;;;;;19.50;99.90;;;;;;5100548;28;20394;-70
2022/07/25 04:10:12;;;;;;;;;;;19.40;99.90;;;;;;5097870;28;20432;-70
2022/07/25 04:12:37;;;;;;;;;;;19.50;99.90;;;;;;5092590;28;20397;-70
2022/07/25 04:15:03;;;;;;;;;;;19.30;99.90;;;;;;5099095;28;19923;-69
2022/07/25 04:17:29;;;;;;;;;;;18.90;99.90;;;;;;5095114;28;19943;-69
2022/07/25 04:19:54;;;;;;;;;;;18.70;99.90;;;;;;5094782;28;19919;-69
2022/07/25 04:22:20;;;;;;;;;;;18.30;99.90;;;;;;5096888;28;19916;-69
2022/07/25 04:24:46;;;;;;;;;;;18.10;99.90;;;;;;5102828;28;19920;-69
2022/07/25 04:27:11;;;;;;;;;;;17.90;99.90;;;;;;5097506;28;20289;-69
2022/07/25 04:29:37;;;;;;;;;;;17.80;99.90;;;;;;5094632;28;20294;-68
2022/07/25 04:32:02;;;;;;;;;;;17.70;99.90;;;;;;5088978;28;19969;-69
2022/07/25 04:34:28;;;;;;;;;;;18.00;99.90;;;;;;5095695;28;19972;-69
2022/07/25 04:36:53;;;;;;;;;;;18.00;99.90;;;;;;5097115;28;19920;-69
2022/07/25 04:39:19;;;;;;;;;;;18.00;99.90;;;;;;5095911;28;19912;-70
2022/07/25 04:41:45;;;;;;;;;;;18.00;99.90;;;;;;5094281;28;19918;-70
2022/07/25 04:44:10;;;;;;;;;;;18.20;99.90;;;;;;5094359;28;19960;-69
2022/07/25 04:46:36;;;;;;;;;;;18.60;99.90;;;;;;5089249;28;20279;-70
2022/07/25 04:49:01;;;;;;;;;;;18.90;99.90;;;;;;5095596;28;19912;-68
2022/07/25 04:51:27;;;;;;;;;;;18.90;99.90;;;;;;5094183;28;19912;-69
2022/07/25 04:53:53;;;;;;;;;;;18.90;99.90;;;;;;5083312;28;19961;-69
2022/07/25 04:56:18;;;;;;;;;;;19.00;99.90;;;;;;5097906;28;19920;-69
2022/07/25 04:58:44;;;;;;;;;;;18.80;99.90;;;;;;5099253;28;19951;-70
2022/07/25 05:01:09;;;;;;;;;;;18.90;99.90;;;;;;5094194;28;19920;-69
2022/07/25 05:03:35;;;;;;;;;;;18.80;99.90;;;;;;5095559;28;19919;-69
2022/07/25 05:06:01;;;;;;;;;;;18.70;99.90;;;;;;5096152;28;19941;-69
2022/07/25 05:08:26;;;;;;;;;;;18.80;99.90;;;;;;5094443;28;19920;-69
2022/07/25 05:10:52;;;;;;;;;;;18.90;99.90;;;;;;5088774;28;19916;-70
2022/07/25 05:13:17;;;;;;;;;;;19.10;99.90;;;;;;5093656;28;19919;-70
2022/07/25 05:15:43;;;;;;;;;;;19.10;99.90;;;;;;5097253;28;20011;-69
2022/07/25 05:18:08;;;;;;;;;;;19.10;99.90;;;;;;5090972;28;19958;-69
2022/07/25 05:20:34;;;;;;;;;;;19.10;99.90;;;;;;5094773;28;19923;-69
2022/07/25 05:23:00;;;;;;;;;;;19.20;99.90;;;;;;5097335;28;19919;-69
2022/07/25 05:25:25;;;;;;;;;;;19.10;99.90;;;;;;5095357;28;19920;-69
2022/07/25 05:27:53;;;;;;;;;;;19.10;99.90;;;;;;5095054;28;19923;-69
2022/07/25 05:30:19;;;;;;;;;;;19.10;99.90;;;;;;5099481;28;19958;-69
2022/07/25 05:32:45;;;;;;;;;;;19.10;99.90;;;;;;5095120;28;19916;-69
2022/07/25 05:35:10;;;;;;;;;;;19.20;99.90;;;;;;5091244;28;19916;-69
2022/07/25 05:37:36;;;;;;;;;;;19.00;99.90;;;;;;5076318;28;19920;-69
2022/07/25 05:40:03;;;;;;;;;;;18.90;99.90;;;;;;5097709;28;20328;-69
2022/07/25 05:42:29;;;;;;;;;;;19.20;99.90;;;;;;5083923;28;19920;-69
2022/07/25 05:44:54;;;;;;;;;;;19.40;99.90;;;;;;5091238;28;19981;-69
2022/07/25 05:47:20;;;;;;;;;;;19.10;99.90;;;;;;5093766;28;19920;-69
2022/07/25 05:49:46;;;;;;;;;;;18.90;99.90;;;;;;5098922;28;21713;-69
2022/07/25 05:52:11;;;;;;;;;;;18.90;99.90;;;;;;5091033;28;19943;-70
2022/07/25 05:54:37;;;;;;;;;;;19.20;99.90;;;;;;5098249;28;19912;-70
2022/07/25 05:57:02;;;;;;;;;;;19.10;99.90;;;;;;5090832;28;19912;-69
2022/07/25 05:59:28;;;;;;;;;;;18.90;99.90;;;;;;5093991;28;19920;-70
2022/07/25 06:01:54;;;;;;;;;;;18.70;99.90;;;;;;5092902;28;19912;-70
2022/07/25 06:04:19;;;;;;;;;;;18.60;99.90;;;;;;5092182;28;19927;-69
2022/07/25 06:06:49;;;;;;;;;;;18.70;99.90;;;;;;5093230;28;19972;-70
2022/07/25 06:09:22;;;;;;;;;;;18.90;99.90;;;;;;5093483;28;19911;-70
2022/07/25 06:11:48;;;;;;;;;;;19.00;99.90;;;;;;5093449;28;20250;-69
2022/07/25 06:14:14;;;;;;;;;;;19.00;99.90;;;;;;5078970;28;19954;-70
2022/07/25 06:16:39;;;;;;;;;;;19.00;99.90;;;;;;5075447;28;20373;-70
2022/07/25 06:19:05;;;;;;;;;;;19.20;99.90;;;;;;5086815;28;19931;-70
2022/07/25 06:21:31;;;;;;;;;;;19.30;99.90;;;;;;5094867;28;19939;-69
2022/07/25 06:23:56;;;;;;;;;;;19.50;99.90;;;;;;5092528;28;19920;-70
2022/07/25 06:26:23;;;;;;;;;;;19.70;99.90;;;;;;5093624;28;19980;-69
2022/07/25 06:28:49;;;;;;;;;;;19.50;99.90;;;;;;5085085;28;19920;-71
2022/07/25 06:31:15;;;;;;;;;;;19.20;99.90;;;;;;5089609;28;20389;-70
2022/07/25 06:33:40;;;;;;;;;;;19.20;99.90;;;;;;5101399;28;19913;-70
2022/07/25 06:36:06;;;;;;;;;;;19.50;99.90;;;;;;5097980;28;19919;-70
2022/07/25 06:38:32;;;;;;;;;;;19.60;99.90;;;;;;5095710;28;19934;-70
2022/07/25 06:40:57;;;;;;;;;;;19.60;99.90;;;;;;5101113;28;19919;-70
2022/07/25 06:43:23;;;;;;;;;;;19.50;99.90;;;;;;5102239;28;20378;-71
2022/07/25 06:45:48;;;;;;;;;;;19.60;99.90;;;;;;5094773;28;19939;-70
2022/07/25 06:48:14;;;;;;;;;;;19.50;99.90;;;;;;5096330;28;19938;-69
2022/07/25 06:50:40;;;;;;;;;;;19.30;99.90;;;;;;5095852;28;19962;-70
2022/07/25 06:53:05;;;;;;;;;;;19.40;99.90;;;;;;5091757;28;20015;-70
2022/07/25 06:55:31;;;;;;;;;;;19.60;99.90;;;;;;5094993;28;20000;-70
2022/07/25 06:57:57;;;;;;;;;;;19.80;99.90;;;;;;5096795;28;19954;-70
2022/07/25 07:00:22;;;;;;;;;;;19.80;99.90;;;;;;5091806;28;19927;-70
2022/07/25 07:02:49;;;;;;;;;;;19.80;99.90;;;;;;5096688;28;19912;-70
2022/07/25 07:05:15;;;;;;;;;;;19.80;99.90;;;;;;5092097;28;20294;-69
2022/07/25 07:07:40;;;;;;;;;;;19.70;99.90;;;;;;5092853;28;20026;-70
2022/07/25 07:10:06;;;;;;;;;;;19.80;99.90;;;;;;5091791;28;20254;-69
2022/07/25 07:12:31;;;;;;;;;;;19.80;99.90;;;;;;5088173;28;20209;-69
2022/07/25 07:14:57;;;;;;;;;;;19.70;99.90;;;;;;5089437;28;19912;-69
2022/07/25 07:17:23;;;;;;;;;;;19.60;99.90;;;;;;5098695;28;20282;-70
2022/07/25 07:19:48;;;;;;;;;;;19.80;99.90;;;;;;5099500;28;20310;-70
2022/07/25 07:22:14;;;;;;;;;;;19.80;99.90;;;;;;5098294;28;19911;-69
2022/07/25 07:24:39;;;;;;;;;;;20.00;99.90;;;;;;5092470;28;19916;-70
2022/07/25 07:27:05;;;;;;;;;;;20.10;99.90;;;;;;5079276;28;20774;-70
2022/07/25 07:29:31;;;;;;;;;;;20.10;99.90;;;;;;5083690;28;19912;-70
2022/07/25 07:31:56;;;;;;;;;;;20.10;99.90;;;;;;5096271;28;20028;-69
2022/07/25 07:34:22;;;;;;;;;;;20.20;99.90;;;;;;5079953;28;19912;-70
2022/07/25 07:36:47;;;;;;;;;;;20.30;99.90;;;;;;5101532;28;19916;-70
2022/07/25 07:39:14;;;;;;;;;;;20.00;99.90;;;;;;5099184;28;19919;-70
2022/07/25 07:41:40;;;;;;;;;;;19.70;99.90;;;;;;5078644;28;19916;-70
2022/07/25 07:44:06;;;;;;;;;;;19.70;99.90;;;;;;5100284;28;20216;-69
2022/07/25 07:46:31;;;;;;;;;;;19.60;99.90;;;;;;5091934;28;19958;-69
2022/07/25 07:48:57;;;;;;;;;;;19.40;99.90;;;;;;5097969;28;19912;-69
2022/07/25 07:51:22;;;;;;;;;;;19.30;99.90;;;;;;5081268;28;20344;-70
2022/07/25 07:56:32;;;;;;;;;;;18.70;99.90;;;;;;5100151;28;19965;-70
2022/07/25 07:58:58;;;;;;;;;;;18.40;99.90;;;;;;5101135;28;19967;-70
2022/07/25 08:01:24;;;;;;;;;;;18.20;99.90;;;;;;5096855;28;20277;-71
2022/07/25 08:03:49;;;;;;;;;;;18.10;99.90;;;;;;5101612;28;19916;-69
2022/07/25 08:06:15;;;;;;;;;;;17.80;99.90;;;;;;5094099;28;19920;-69
2022/07/25 08:08:41;;;;;;;;;;;17.60;99.90;;;;;;5095134;28;19919;-68
2022/07/25 08:11:06;;;;;;;;;;;17.40;99.90;;;;;;5097405;28;19908;-68
2022/07/25 08:13:36;;;;;;;;;;;17.40;99.90;;;;;;5100788;28;19977;-69
2022/07/25 08:16:02;;;;;;;;;;;17.50;99.90;;;;;;5095097;28;19920;-68
2022/07/25 08:18:30;;;;;;;;;;;17.70;99.90;;;;;;5095693;28;19915;-67
2022/07/25 08:20:56;;;;;;;;;;;17.50;99.90;;;;;;5074110;28;20231;-68
2022/07/25 08:23:21;;;;;;;;;;;17.40;99.90;;;;;;5095283;28;20758;-67
2022/07/25 08:25:47;;;;;;;;;;;17.60;99.90;;;;;;5077231;28;19990;-69
2022/07/25 08:28:13;;;;;;;;;;;17.80;99.90;;;;;;5076258;28;19935;-69
2022/07/25 08:30:39;;;;;;;;;;;18.00;99.90;;;;;;5079567;28;19912;-69
2022/07/25 08:33:05;;;;;;;;;;;18.30;99.90;;;;;;5073748;28;20003;-69
2022/07/25 08:35:32;;;;;;;;;;;18.60;99.90;;;;;;5080470;28;19920;-68
2022/07/25 08:37:58;;;;;;;;;;;18.70;99.90;;;;;;5073567;28;19957;-69
2022/07/25 08:40:24;;;;;;;;;;;18.80;99.90;;;;;;5075865;28;19995;-69
2022/07/25 08:42:50;;;;;;;;;;;19.00;99.90;;;;;;5074813;28;20043;-68
2022/07/25 08:45:18;;;;;;;;;;;19.30;99.90;;;;;;5039354;28;20755;-69
2022/07/25 08:47:44;;;;;;;;;;;19.40;99.90;;;;;;5058919;28;19961;-68
2022/07/25 08:50:16;;;;;;;;;;;19.50;99.90;;;;;;5075449;28;19917;-69
2022/07/25 08:52:43;;;;;;;;;;;19.60;99.90;;;;;;5058331;28;19912;-70
2022/07/25 08:55:11;;;;;;;;;;;19.70;99.90;;;;;;5069553;28;19957;-68
2022/07/25 08:57:40;;;;;;;;;;;19.60;99.90;;;;;;5078605;28;19924;-68
2022/07/25 09:00:06;;;;;;;;;;;19.30;99.90;;;;;;5076433;28;20283;-68
2022/07/25 09:02:32;;;;;;;;;;;19.40;99.90;;;;;;5072152;28;20008;-69
2022/07/25 09:04:58;;;;;;;;;;;19.40;99.90;;;;;;5069897;28;19932;-69
2022/07/25 09:07:34;;;;;;;;;;;19.40;99.90;;;;;;5076154;28;20006;-68
2022/07/25 09:10:16;;;;;;;;;;;19.30;99.90;;;;;;5075367;28;19913;-69
2022/07/25 09:12:49;;;;;;;;;;;19.30;99.90;;;;;;5053308;28;19919;-69
2022/07/25 09:15:31;;;;;;;;;;;19.10;99.90;;;;;;5070376;28;19921;-70
2022/07/25 09:17:58;;;;;;;;;;;19.20;99.90;;;;;;5069192;28;19920;-68
2022/07/25 09:20:24;;;;;;;;;;;19.50;99.90;;;;;;5078965;28;19916;-70
2022/07/25 09:22:50;;;;;;;;;;;19.70;99.90;;;;;;5075970;28;20018;-68
2022/07/25 09:25:19;;;;;;;;;;;20.00;99.90;;;;;;5097168;28;20015;-68
2022/07/25 09:27:44;;;;;;;;;;;20.10;99.90;;;;;;5094813;28;19923;-70
2022/07/25 09:30:11;;;;;;;;;;;20.30;99.90;;;;;;5098783;28;19916;-69
2022/07/25 09:32:37;;;;;;;;;;;20.30;99.90;;;;;;5091939;28;19965;-68
2022/07/25 09:35:02;;;;;;;;;;;20.30;99.90;;;;;;5092818;28;19916;-68
2022/07/25 09:37:28;;;;;;;;;;;20.50;99.90;;;;;;5094225;28;19919;-68
2022/07/25 09:39:53;;;;;;;;;;;20.60;99.90;;;;;;5092478;28;19987;-70
2022/07/25 09:42:24;;;;;;;;;;;20.70;99.90;;;;;;5095817;28;19912;-68
2022/07/25 09:44:57;;;;;;;;;;;20.90;99.90;;;;;;5089432;28;19935;-68
2022/07/25 09:47:23;;;;;;;;;;;21.00;99.90;;;;;;5077682;28;19931;-70
2022/07/25 09:49:48;;;;;;;;;;;20.90;99.90;;;;;;5096234;28;19924;-71
2022/07/25 09:52:16;;;;;;;;;;;20.90;99.90;;;;;;5100447;28;19912;-70
2022/07/25 09:54:41;;;;;;;;;;;20.70;99.90;;;;;;5092867;28;19919;-69
2022/07/25 09:57:07;;;;;;;;;;;20.80;99.90;;;;;;5093273;28;19911;-68
2022/07/25 09:59:33;;;;;;;;;;;20.80;99.90;;;;;;5096440;28;19916;-69
2022/07/25 10:02:03;;;;;;;;;;;20.80;99.90;;;;;;5098193;28;19919;-68
2022/07/25 10:04:48;;;;;;;;;;;20.90;99.90;;;;;;5096490;28;20258;-69
2022/07/25 10:07:14;;;;;;;;;;;20.90;99.90;;;;;;5104369;28;19947;-69
2022/07/25 10:09:44;;;;;;;;;;;20.50;99.90;;;;;;5100542;28;19931;-68
2022/07/25 10:12:10;;;;;;;;;;;20.30;99.90;;;;;;5096314;28;20526;-70
2022/07/25 10:14:36;;;;;;;;;;;20.50;99.90;;;;;;5094408;28;19973;-70
2022/07/25 10:17:02;;;;;;;;;;;20.80;99.90;;;;;;5090449;28;19920;-70
2022/07/25 10:19:36;;;;;;;;;;;21.00;99.90;;;;;;5081691;28;19911;-70
2022/07/25 10:22:02;;;;;;;;;;;21.00;99.90;;;;;;5097413;28;20315;-69
2022/07/25 10:24:34;;;;;;;;;;;20.90;99.90;;;;;;5093130;28;20067;-69
2022/07/25 10:27:06;;;;;;;;;;;20.80;99.90;;;;;;5100561;28;19968;-68
2022/07/25 10:29:33;;;;;;;;;;;20.80;99.90;;;;;;5096923;28;19976;-67
2022/07/25 10:32:05;;;;;;;;;;;20.80;99.90;;;;;;5081589;28;20266;-69
2022/07/25 10:34:31;;;;;;;;;;;21.10;99.90;;;;;;5101267;28;19923;-70
2022/07/25 10:37:07;;;;;;;;;;;21.20;99.90;;;;;;5079821;28;20396;-70
2022/07/25 10:39:36;;;;;;;;;;;21.20;99.90;;;;;;5100723;28;20413;-70
2022/07/25 10:42:03;;;;;;;;;;;21.10;99.90;;;;;;5102229;28;20044;-69
2022/07/25 10:44:43;;;;;;;;;;;20.90;99.90;;;;;;5072075;28;20248;-69
2022/07/25 10:47:10;;;;;;;;;;;20.90;99.90;;;;;;5081769;28;19919;-69
2022/07/25 10:49:36;;;;;;;;;;;21.00;99.90;;;;;;5095027;28;20277;-70
2022/07/25 10:52:03;;;;;;;;;;;21.00;99.90;;;;;;5096924;28;20354;-68
2022/07/25 10:54:33;;;;;;;;;;;21.10;99.90;;;;;;5097639;28;19983;-68
2022/07/25 10:56:59;;;;;;;;;;;21.10;99.90;;;;;;5080784;28;20047;-69
2022/07/25 10:59:26;;;;;;;;;;;21.30;99.90;;;;;;5092467;28;20006;-69
2022/07/25 11:01:52;;;;;;;;;;;21.30;99.90;;;;;;5100556;28;19947;-70
2022/07/25 11:04:18;;;;;;;;;;;21.20;99.90;;;;;;5104626;28;19954;-69
2022/07/25 11:06:43;;;;;;;;;;;21.10;99.90;;;;;;5092704;28;19911;-68
2022/07/25 11:09:16;;;;;;;;;;;21.10;99.90;;;;;;5100796;28;20309;-68
2022/07/25 11:11:47;;;;;;;;;;;21.00;99.90;;;;;;5092547;28;20370;-67
2022/07/25 11:14:20;;;;;;;;;;;20.70;99.90;;;;;;5095297;28;19919;-69
2022/07/25 11:16:46;;;;;;;;;;;20.90;99.90;;;;;;5093473;28;20003;-69
2022/07/25 11:19:17;;;;;;;;;;;21.00;99.90;;;;;;5096546;28;20289;-70
2022/07/25 11:21:47;;;;;;;;;;;21.20;99.90;;;;;;5100034;28;19923;-70
2022/07/25 11:24:12;;;;;;;;;;;21.40;99.90;;;;;;5080139;28;19960;-68
2022/07/25 11:26:47;;;;;;;;;;;21.60;99.90;;;;;;5103173;28;20329;-70
2022/07/25 11:29:23;;;;;;;;;;;21.80;99.90;;;;;;5093259;28;22699;-69
2022/07/25 11:31:59;;;;;;;;;;;21.90;99.90;;;;;;5091794;28;19916;-68
2022/07/25 11:34:27;;;;;;;;;;;22.10;99.90;;;;;;5101588;28;20550;-70
2022/07/25 11:36:55;;;;;;;;;;;21.90;99.90;;;;;;5098085;28;19916;-70
2022/07/25 11:39:29;;;;;;;;;;;22.30;99.90;;;;;;5102847;28;20048;-68
2022/07/25 11:42:15;;;;;;;;;;;22.50;99.90;;;;;;5093301;28;19997;-70
2022/07/25 11:44:47;;;;;;;;;;;22.50;99.90;;;;;;5092972;28;19927;-69
2022/07/25 11:47:25;;;;;;;;;;;22.40;99.90;;;;;;5080774;28;19916;-69
2022/07/25 11:49:51;;;;;;;;;;;22.30;99.90;;;;;;5096773;28;19967;-69
2022/07/25 11:52:26;;;;;;;;;;;22.00;99.90;;;;;;5097751;28;20362;-70
2022/07/25 11:54:51;;;;;;;;;;;21.80;99.90;;;;;;5084197;28;20271;-70
2022/07/25 11:57:24;;;;;;;;;;;21.80;99.90;;;;;;5096886;28;20374;-70
2022/07/25 11:59:50;;;;;;;;;;;21.80;99.90;;;;;;5096890;28;19969;-70
2022/07/25 12:02:26;;;;;;;;;;;21.40;99.90;;;;;;5071636;28;19916;-70
2022/07/25 12:04:52;;;;;;;;;;;20.90;99.90;;;;;;5090909;28;20010;-69
2022/07/25 12:07:18;;;;;;;;;;;20.80;99.90;;;;;;5094686;28;19916;-69
2022/07/25 12:09:53;;;;;;;;;;;20.80;99.90;;;;;;5092811;28;19916;-70
2022/07/25 12:12:19;;;;;;;;;;;20.80;99.90;;;;;;5092694;28;20347;-70
2022/07/25 12:14:45;;;;;;;;;;;20.80;99.90;;;;;;5100134;28;19912;-69
2022/07/25 12:17:10;;;;;;;;;;;21.10;99.90;;;;;;5096789;28;20272;-70
2022/07/25 12:19:38;;;;;;;;;;;21.50;99.90;;;;;;5095309;28;19923;-69
2022/07/25 12:22:04;;;;;;;;;;;21.70;99.90;;;;;;5084285;28;20361;-70
2022/07/25 12:24:29;;;;;;;;;;;21.50;99.90;;;;;;5091097;28;19924;-69
2022/07/25 12:26:55;;;;;;;;;;;21.60;99.90;;;;;;5092265;28;19927;-70
2022/07/25 12:29:20;;;;;;;;;;;21.70;99.90;;;;;;5088251;28;20635;-70
2022/07/25 12:31:46;;;;;;;;;;;21.80;99.90;;;;;;5093539;28;19912;-69
2022/07/25 12:34:11;;;;;;;;;;;21.70;99.90;;;;;;5103354;28;20386;-70
2022/07/25 12:36:42;;;;;;;;;;;21.70;99.90;;;;;;5096297;28;19951;-69
2022/07/25 12:39:08;;;;;;;;;;;22.00;99.90;;;;;;5093065;28;20021;-70
2022/07/25 12:41:34;;;;;;;;;;;22.20;99.90;;;;;;5076329;28;19912;-69
2022/07/25 12:44:01;;;;;;;;;;;22.00;99.90;;;;;;5080548;28;20002;-69
2022/07/25 12:46:26;;;;;;;;;;;21.80;99.90;;;;;;5075710;28;19924;-69
2022/07/25 12:48:52;;;;;;;;;;;21.80;99.90;;;;;;5089108;28;19912;-69
2022/07/25 12:51:19;;;;;;;;;;;21.80;99.90;;;;;;5096188;28;19919;-69
2022/07/25 12:53:44;;;;;;;;;;;21.80;99.90;;;;;;5083177;28;19920;-71
2022/07/25 12:56:10;;;;;;;;;;;22.00;99.90;;;;;;5081598;28;19920;-70
2022/07/25 12:58:36;;;;;;;;;;;22.00;99.90;;;;;;5080030;28;19919;-71
2022/07/25 13:01:02;;;;;;;;;;;21.80;99.90;;;;;;5093177;28;19986;-70
2022/07/25 13:03:28;;;;;;;;;;;21.80;99.90;;;;;;5097323;28;20002;-70
2022/07/25 13:05:53;;;;;;;;;;;22.00;99.90;;;;;;5075269;28;19936;-71
2022/07/25 13:08:19;;;;;;;;;;;22.20;99.90;;;;;;5071309;28;20259;-71
2022/07/25 13:10:44;;;;;;;;;;;22.00;99.90;;;;;;5097592;28;20517;-70
2022/07/25 13:13:10;;;;;;;;;;;21.70;99.90;;;;;;5091318;28;19916;-70
2022/07/25 13:15:36;;;;;;;;;;;21.50;99.90;;;;;;5089834;28;20798;-71
2022/07/25 13:18:02;;;;;;;;;;;21.60;99.90;;;;;;5089931;28;19943;-70
2022/07/25 13:20:28;;;;;;;;;;;21.60;99.90;;;;;;5093392;28;19922;-70
2022/07/25 13:22:54;;;;;;;;;;;21.50;99.90;;;;;;5094077;28;20494;-70
2022/07/25 13:25:19;;;;;;;;;;;21.50;99.90;;;;;;5091277;28;20048;-70
2022/07/25 13:27:46;;;;;;;;;;;21.60;99.90;;;;;;5093266;28;20227;-70
2022/07/25 13:30:13;;;;;;;;;;;21.60;99.90;;;;;;5092658;28;19912;-71
2022/07/25 13:32:39;;;;;;;;;;;21.60;99.90;;;;;;5070712;28;19924;-71
2022/07/25 13:35:05;;;;;;;;;;;21.60;99.90;;;;;;5079736;28;20063;-71
2022/07/25 13:37:30;;;;;;;;;;;21.70;99.90;;;;;;5088304;28;19957;-70
2022/07/25 13:39:56;;;;;;;;;;;21.80;99.90;;;;;;5089480;28;19912;-70
2022/07/25 13:42:22;;;;;;;;;;;21.90;99.90;;;;;;5100811;28;19916;-71
2022/07/25 13:44:47;;;;;;;;;;;22.00;99.90;;;;;;5092477;28;19927;-71
2022/07/25 13:47:13;;;;;;;;;;;22.00;99.90;;;;;;5100318;28;20570;-72
2022/07/25 13:49:40;;;;;;;;;;;22.10;99.90;;;;;;5093931;28;19912;-70
2022/07/25 13:52:05;;;;;;;;;;;22.20;99.90;;;;;;5094980;28;19992;-70
2022/07/25 13:54:31;;;;;;;;;;;22.30;99.90;;;;;;5090702;28;21095;-70
2022/07/25 13:56:57;;;;;;;;;;;22.60;99.90;;;;;;5086926;28;20302;-70
2022/07/25 13:59:23;;;;;;;;;;;22.70;99.90;;;;;;5096355;28;20022;-70
2022/07/25 14:01:49;;;;;;;;;;;22.50;99.90;;;;;;5095236;28;19999;-71
2022/07/25 14:04:14;;;;;;;;;;;22.20;99.90;;;;;;5088811;28;19988;-71
2022/07/25 14:06:40;;;;;;;;;;;21.80;99.90;;;;;;5090638;28;20441;-71
2022/07/25 14:09:06;;;;;;;;;;;21.70;99.90;;;;;;5092987;28;20295;-71
2022/07/25 14:11:31;;;;;;;;;;;21.20;99.90;;;;;;5090903;28;19923;-70
2022/07/25 14:13:57;;;;;;;;;;;20.80;99.90;;;;;;5089727;28;19999;-70
2022/07/25 14:16:23;;;;;;;;;;;20.20;99.90;;;;;;5091602;28;20290;-68